Time;durP1;ratioP1;P1;durP2;ratioP2;P2;SDS_P1;SDS_P2;PMS_P1;PMS_P2;Temp;Humidity;BMP_temperature;BMP_pressure;BME280_temperature;BME280_humidity;BME280_pressure;Samples;Min_cycle;Max_cycle;Signal;HPM_P1;HPM_P2
2022/11/13 00:01:54;;;;;;;13.52;4.45;;;25.40;99.90;;;;;;5056409;28;20028;-67
2022/11/13 00:04:21;;;;;;;11.13;4.22;;;25.50;99.90;;;;;;5056090;28;20384;-69
2022/11/13 00:06:47;;;;;;;7.95;4.85;;;25.50;99.90;;;;;;5056149;28;20021;-66
2022/11/13 00:09:13;;;;;;;9.32;5.20;;;25.60;99.90;;;;;;5056017;28;20082;-69
2022/11/13 00:11:40;;;;;;;6.60;4.68;;;25.60;99.90;;;;;;5055929;28;20021;-69
2022/11/13 00:14:06;;;;;;;8.27;4.80;;;25.60;99.90;;;;;;5055860;28;20105;-68
2022/11/13 00:16:33;;;;;;;9.77;4.55;;;25.50;99.90;;;;;;5055801;28;20021;-67
2022/11/13 00:19:00;;;;;;;17.42;11.32;;;25.50;99.90;;;;;;5055848;28;20017;-66
2022/11/13 00:21:26;;;;;;;14.13;8.85;;;25.60;99.90;;;;;;5055734;28;20496;-66
2022/11/13 00:23:55;;;;;;;11.23;5.65;;;25.70;99.90;;;;;;5055716;28;20106;-67
2022/11/13 00:26:23;;;;;;;13.13;5.47;;;25.60;99.90;;;;;;5055621;28;20029;-62
2022/11/13 00:28:53;;;;;;;12.43;9.02;;;25.50;99.90;;;;;;5055628;28;20021;-63
2022/11/13 00:31:20;;;;;;;13.30;7.03;;;25.70;99.90;;;;;;5055514;28;20033;-64
2022/11/13 00:33:47;;;;;;;17.10;8.02;;;25.70;99.90;;;;;;5055525;28;20048;-64
2022/11/13 00:36:17;;;;;;;12.50;7.45;;;25.80;99.90;;;;;;5055365;28;20047;-63
2022/11/13 00:38:44;;;;;;;45.08;35.60;;;25.80;99.90;;;;;;5055528;28;20017;-63
2022/11/13 00:41:11;;;;;;;226.32;151.50;;;25.80;99.90;;;;;;5055512;28;20472;-63
2022/11/13 00:43:38;;;;;;;138.13;94.25;;;25.80;99.90;;;;;;5052085;28;20033;-63
2022/11/13 00:46:06;;;;;;;13.07;8.30;;;25.80;99.90;;;;;;5046213;28;20026;-64
2022/11/13 00:48:32;;;;;;;11.57;7.45;;;25.80;99.90;;;;;;5043200;28;20040;-64
2022/11/13 00:50:59;;;;;;;10.68;7.70;;;25.60;99.90;;;;;;5045808;28;20480;-62
2022/11/13 00:53:26;;;;;;;9.77;6.80;;;25.60;99.90;;;;;;5043831;28;20481;-65
2022/11/13 00:55:52;;;;;;;11.88;7.38;;;25.50;99.90;;;;;;5045214;28;20474;-65
2022/11/13 00:58:18;;;;;;;11.73;7.28;;;25.40;99.90;;;;;;5043450;28;20783;-66
2022/11/13 01:00:47;;;;;;;12.55;8.10;;;25.40;99.90;;;;;;5044081;28;20420;-65
2022/11/13 01:03:15;;;;;;;14.57;8.48;;;25.50;99.90;;;;;;5045263;28;20096;-64
2022/11/13 01:05:44;;;;;;;13.80;8.40;;;25.50;99.90;;;;;;5043807;28;20017;-65
2022/11/13 01:08:12;;;;;;;15.75;10.05;;;25.50;99.90;;;;;;5042960;28;20025;-64
2022/11/13 01:10:42;;;;;;;20.88;10.82;;;25.50;99.90;;;;;;5044687;28;20553;-65
2022/11/13 01:13:09;;;;;;;12.82;9.77;;;25.40;99.90;;;;;;5044269;28;20219;-64
2022/11/13 01:15:38;;;;;;;13.45;8.70;;;25.50;99.90;;;;;;5042754;28;20017;-65
2022/11/13 01:18:05;;;;;;;19.30;9.10;;;25.50;99.90;;;;;;5043575;28;20017;-68
2022/11/13 01:20:32;;;;;;;12.77;9.75;;;25.50;99.90;;;;;;5044652;28;20025;-64
2022/11/13 01:22:59;;;;;;;15.65;9.02;;;25.50;99.90;;;;;;5042924;28;20026;-64
2022/11/13 01:25:27;;;;;;;12.93;8.75;;;25.50;99.90;;;;;;5043700;28;20029;-67
2022/11/13 01:27:53;;;;;;;15.15;9.10;;;25.50;99.90;;;;;;5044635;28;20021;-65
2022/11/13 01:30:20;;;;;;;14.35;8.52;;;25.50;99.90;;;;;;5042896;28;20055;-65
2022/11/13 01:32:47;;;;;;;16.38;7.03;;;25.70;99.90;;;;;;5043117;28;20013;-66
2022/11/13 01:35:13;;;;;;;15.50;7.93;;;25.60;99.90;;;;;;5044114;28;20025;-64
2022/11/13 01:37:40;;;;;;;19.23;8.82;;;25.70;99.90;;;;;;5042850;28;20045;-66
2022/11/13 01:40:07;;;;;;;14.27;8.93;;;25.60;99.90;;;;;;5043033;28;20028;-66
2022/11/13 01:42:33;;;;;;;14.75;10.75;;;25.70;99.90;;;;;;5044386;28;20017;-64
2022/11/13 01:45:01;;;;;;;16.23;11.63;;;25.70;99.90;;;;;;5042698;28;20039;-66
2022/11/13 01:47:28;;;;;;;14.90;11.40;;;25.70;99.90;;;;;;5042979;28;20426;-67
2022/11/13 01:49:58;;;;;;;23.33;11.15;;;25.80;99.90;;;;;;5044049;28;20021;-65
2022/11/13 01:52:30;;;;;;;16.38;11.73;;;25.80;99.90;;;;;;5043130;28;20029;-66
2022/11/13 01:55:07;;;;;;;21.40;11.82;;;25.80;99.90;;;;;;5042463;28;20397;-66
2022/11/13 01:57:34;;;;;;;16.83;12.77;;;25.80;99.90;;;;;;5041913;28;20022;-66
2022/11/13 02:00:05;;;;;;;20.13;12.48;;;25.80;99.90;;;;;;5043518;28;20099;-66
2022/11/13 02:02:31;;;;;;;18.50;11.70;;;25.90;99.90;;;;;;5044288;28;20022;-67
2022/11/13 02:04:58;;;;;;;14.55;10.75;;;25.90;99.90;;;;;;5042124;28;20021;-66
2022/11/13 02:07:25;;;;;;;14.93;9.65;;;25.90;99.90;;;;;;5042962;28;20028;-66
2022/11/13 02:09:55;;;;;;;49.97;31.17;;;25.90;99.90;;;;;;5043836;28;20029;-67
2022/11/13 02:12:28;;;;;;;29.45;21.08;;;26.00;99.90;;;;;;5042185;28;20104;-66
2022/11/13 02:14:54;;;;;;;;;;;26.10;99.90;;;;;;5042211;28;20045;-67
2022/11/13 02:17:34;;;;;;;18.73;10.57;;;26.00;99.90;;;;;;5042607;28;20015;-65
2022/11/13 02:20:03;;;;;;;12.60;8.05;;;26.00;99.90;;;;;;5042385;28;20023;-66
2022/11/13 02:22:32;;;;;;;12.35;7.30;;;26.00;99.90;;;;;;5042714;28;20035;-65
2022/11/13 02:25:01;;;;;;;23.20;8.38;;;25.90;99.90;;;;;;5041671;28;20101;-65
2022/11/13 02:27:33;;;;;;;11.45;7.05;;;25.90;99.90;;;;;;5042126;28;20025;-66
2022/11/13 02:30:14;;;;;;;9.30;6.63;;;26.00;99.90;;;;;;5042829;28;20032;-65
2022/11/13 02:32:47;;;;;;;12.93;7.78;;;26.00;99.90;;;;;;5048725;28;20033;-67
2022/11/13 02:35:20;;;;;;;15.75;7.30;;;26.00;99.90;;;;;;5040487;28;20044;-66
2022/11/13 02:37:47;;;;;;;9.65;6.30;;;26.10;99.90;;;;;;5042415;28;20028;-66
2022/11/13 02:40:13;;;;;;;16.17;6.85;;;26.10;99.90;;;;;;5045702;28;20014;-64
2022/11/13 02:42:40;;;;;;;15.93;7.82;;;26.10;99.90;;;;;;5047559;28;20048;-63
2022/11/13 02:45:07;;;;;;;37.13;21.63;;;26.20;99.90;;;;;;5042411;28;20025;-66
2022/11/13 02:47:34;;;;;;;9.48;6.97;;;26.20;99.90;;;;;;5041049;28;20021;-66
2022/11/13 02:50:00;;;;;;;8.50;5.82;;;26.30;99.90;;;;;;5052856;28;20049;-66
2022/11/13 02:52:27;;;;;;;10.10;5.47;;;26.30;99.90;;;;;;5053277;28;20025;-66
2022/11/13 02:54:53;;;;;;;12.40;5.97;;;26.30;99.90;;;;;;5053063;28;20025;-66
2022/11/13 02:57:20;;;;;;;8.77;5.30;;;26.40;99.90;;;;;;5053067;28;20146;-65
2022/11/13 02:59:46;;;;;;;9.52;4.85;;;26.50;99.90;;;;;;5053323;28;20021;-66
2022/11/13 03:02:13;;;;;;;8.27;4.97;;;26.60;99.90;;;;;;5053170;28;20017;-66
2022/11/13 03:04:39;;;;;;;8.75;5.22;;;26.60;99.90;;;;;;5052627;28;20063;-65
2022/11/13 03:07:06;;;;;;;6.22;3.92;;;26.70;99.90;;;;;;5052869;28;20401;-67
2022/11/13 03:09:32;;;;;;;7.15;4.20;;;26.80;99.90;;;;;;5052906;28;20029;-66
2022/11/13 03:11:59;;;;;;;4.53;3.38;;;26.80;99.90;;;;;;5052952;28;20025;-67
2022/11/13 03:14:25;;;;;;;7.05;3.85;;;26.90;99.90;;;;;;5052900;28;20389;-66
2022/11/13 03:16:52;;;;;;;6.70;3.67;;;26.90;99.90;;;;;;5053048;28;20057;-66
2022/11/13 03:19:18;;;;;;;7.53;3.80;;;27.00;99.90;;;;;;5049126;28;20071;-66
2022/11/13 03:21:45;;;;;;;5.45;3.65;;;27.10;99.90;;;;;;5041317;28;20017;-65
2022/11/13 03:24:11;;;;;;;6.15;3.80;;;27.20;99.90;;;;;;5041998;28;20049;-66
2022/11/13 03:26:38;;;;;;;6.53;4.20;;;27.30;99.90;;;;;;5043148;28;20025;-66
2022/11/13 03:29:04;;;;;;;7.75;3.30;;;27.30;99.90;;;;;;5041301;28;20293;-68
2022/11/13 03:31:31;;;;;;;5.75;3.60;;;27.30;99.90;;;;;;5041922;28;20427;-67
2022/11/13 03:33:58;;;;;;;6.95;3.63;;;27.40;99.90;;;;;;5050940;28;20045;-67
2022/11/13 03:36:24;;;;;;;8.05;3.80;;;27.30;99.90;;;;;;5056250;28;20119;-66
2022/11/13 03:38:51;;;;;;;7.60;4.38;;;27.30;99.90;;;;;;5056930;28;20017;-68
2022/11/13 03:41:17;;;;;;;5.43;3.40;;;27.50;99.90;;;;;;5057501;28;20096;-68
2022/11/13 03:43:44;;;;;;;7.50;3.83;;;27.50;99.90;;;;;;5057225;28;20017;-66
2022/11/13 03:46:10;;;;;;;7.60;3.15;;;27.50;99.90;;;;;;5056696;28;20025;-67
2022/11/13 03:48:37;;;;;;;6.25;4.05;;;27.60;99.90;;;;;;5056864;28;20029;-67
2022/11/13 03:51:04;;;;;;;8.15;5.38;;;27.60;99.90;;;;;;5056144;28;20017;-70
2022/11/13 03:53:31;;;;;;;8.52;4.38;;;27.70;99.90;;;;;;5056512;28;20392;-68
2022/11/13 03:55:58;;;;;;;10.27;5.60;;;27.80;99.90;;;;;;5056282;28;20021;-69
2022/11/13 03:58:24;;;;;;;5.72;4.07;;;27.80;99.90;;;;;;5052568;28;20470;-67
2022/11/13 04:00:54;;;;;;;5.72;3.55;;;27.90;99.90;;;;;;5051441;28;20021;-67
2022/11/13 04:03:21;;;;;;;6.35;4.22;;;27.90;99.90;;;;;;5046821;28;20017;-68
2022/11/13 04:05:49;;;;;;;41.35;33.47;;;28.00;99.90;;;;;;5048010;28;20025;-67
2022/11/13 04:08:16;;;;;;;9.48;5.68;;;28.00;99.90;;;;;;5044141;28;20474;-69
2022/11/13 04:10:43;;;;;;;11.05;4.15;;;28.10;99.90;;;;;;5052941;28;20056;-68
2022/11/13 04:13:11;;;;;;;10.45;4.30;;;28.10;99.90;;;;;;5055841;28;20025;-69
2022/11/13 04:15:38;;;;;;;7.07;4.18;;;28.10;99.90;;;;;;5055459;28;20101;-68
2022/11/13 04:18:04;;;;;;;6.65;3.72;;;28.10;99.90;;;;;;5056095;28;20142;-67
2022/11/13 04:20:31;;;;;;;6.32;4.00;;;28.20;99.90;;;;;;5055129;28;20090;-66
2022/11/13 04:22:58;;;;;;;10.32;4.10;;;28.10;99.90;;;;;;5056037;28;20036;-68
2022/11/13 04:25:25;;;;;;;7.20;4.03;;;28.20;99.90;;;;;;5055474;28;20028;-67
2022/11/13 04:27:53;;;;;;;64.40;41.90;;;28.20;99.90;;;;;;5055682;28;20028;-68
2022/11/13 04:30:19;;;;;;;11.45;6.93;;;28.30;99.90;;;;;;5055820;28;20021;-68
2022/11/13 04:32:46;;;;;;;6.45;4.35;;;28.30;99.90;;;;;;5055729;28;20112;-67
2022/11/13 04:35:12;;;;;;;6.15;4.53;;;28.40;99.90;;;;;;5055223;28;20121;-68
2022/11/13 04:37:39;;;;;;;12.32;5.10;;;28.40;99.90;;;;;;5044588;28;20545;-67
2022/11/13 04:40:06;;;;;;;8.40;4.43;;;28.40;99.90;;;;;;5044569;28;20025;-68
2022/11/13 04:45:02;;;;;;;14.10;4.93;;;28.40;99.90;;;;;;5044599;28;20441;-71
2022/11/13 04:47:28;;;;;;;10.20;5.18;;;28.50;99.90;;;;;;5041566;28;20029;-67
2022/11/13 04:49:55;;;;;;;9.13;4.43;;;28.60;99.90;;;;;;5043851;28;20021;-66
2022/11/13 04:52:21;;;;;;;7.32;4.47;;;28.80;99.90;;;;;;5045564;28;20035;-68
2022/11/13 04:54:48;;;;;;;8.85;3.75;;;28.80;99.90;;;;;;5044287;28;20097;-68
2022/11/13 04:57:14;;;;;;;14.85;6.30;;;28.70;99.90;;;;;;5046352;28;20021;-69
2022/11/13 04:59:41;;;;;;;12.65;4.28;;;28.90;99.90;;;;;;5051706;28;20401;-68
2022/11/13 05:02:07;;;;;;;9.55;4.43;;;29.00;99.90;;;;;;5043133;28;20051;-68
2022/11/13 05:04:34;;;;;;;7.68;4.22;;;29.00;99.90;;;;;;5045352;28;20104;-68
2022/11/13 05:07:00;;;;;;;6.18;3.72;;;29.00;99.90;;;;;;5044529;28;20013;-67
2022/11/13 05:09:27;;;;;;;9.98;4.22;;;29.00;99.90;;;;;;5043652;28;20531;-67
2022/11/13 05:11:53;;;;;;;8.15;4.72;;;29.10;99.90;;;;;;5039503;28;20032;-70
2022/11/13 05:14:20;;;;;;;9.07;4.65;;;29.20;99.90;;;;;;5043700;28;20033;-69
2022/11/13 05:16:48;;;;;;;7.05;4.50;;;29.40;99.90;;;;;;5044843;28;20040;-70
2022/11/13 05:19:15;;;;;;;8.27;4.00;;;29.50;99.90;;;;;;5043602;28;20012;-70
2022/11/13 05:21:42;;;;;;;5.90;4.25;;;29.40;99.90;;;;;;5041878;28;20025;-70
2022/11/13 05:24:10;;;;;;;10.35;4.05;;;29.40;99.90;;;;;;5042253;28;20029;-68
2022/11/13 05:26:38;;;;;;;6.50;4.35;;;29.50;99.90;;;;;;5046111;28;20028;-70
2022/11/13 05:29:05;;;;;;;5.93;3.97;;;29.50;99.90;;;;;;5046368;28;20025;-71
2022/11/13 05:31:32;;;;;;;7.60;3.92;;;29.60;99.90;;;;;;5041998;28;20032;-68
2022/11/13 05:33:58;;;;;;;8.80;4.15;;;29.70;99.90;;;;;;5034896;28;20048;-67
2022/11/13 05:36:25;;;;;;;15.77;6.20;;;29.70;99.90;;;;;;5034159;28;20042;-68
2022/11/13 05:38:51;;;;;;;7.72;3.90;;;29.70;99.90;;;;;;5038097;28;20104;-69
2022/11/13 05:41:20;;;;;;;24.30;16.48;;;29.80;99.90;;;;;;5044209;28;20064;-67
2022/11/13 05:43:48;;;;;;;103.78;66.13;;;29.80;99.90;;;;;;5033193;28;20028;-68
2022/11/13 05:46:18;;;;;;;13.45;5.93;;;29.90;99.90;;;;;;5033590;28;20052;-69
2022/11/13 05:48:46;;;;;;;13.90;7.90;;;30.00;99.90;;;;;;5033615;28;20021;-67
2022/11/13 05:51:15;;;;;;;12.23;5.80;;;30.10;99.90;;;;;;5033321;28;20029;-68
2022/11/13 05:53:42;;;;;;;18.40;5.28;;;30.20;99.90;;;;;;5033425;28;20018;-67
2022/11/13 05:56:14;;;;;;;13.82;4.60;;;30.10;99.90;;;;;;5032980;28;20013;-68
2022/11/13 05:58:42;;;;;;;12.55;4.97;;;30.30;99.90;;;;;;5033891;28;20025;-69
2022/11/13 06:01:21;;;;;;;10.05;4.93;;;30.50;99.90;;;;;;5033875;28;20151;-70
2022/11/13 06:03:48;;;;;;;11.50;4.20;;;30.60;99.90;;;;;;5034777;28;20393;-68
2022/11/13 06:06:17;;;;;;;11.95;4.03;;;30.60;99.90;;;;;;5042744;28;20036;-69
2022/11/13 06:08:45;;;;;;;12.18;4.68;;;30.60;99.90;;;;;;5042116;28;20014;-68
2022/11/13 06:11:16;;;;;;;11.20;5.15;;;30.50;99.90;;;;;;5042411;28;20080;-68
2022/11/13 06:13:43;;;;;;;11.15;5.57;;;30.50;99.90;;;;;;5041914;28;20021;-69
2022/11/13 06:16:14;;;;;;;9.82;5.50;;;30.60;99.90;;;;;;5041299;28;20480;-69
2022/11/13 06:18:42;;;;;;;14.15;6.22;;;30.80;99.90;;;;;;5036650;28;20526;-72
2022/11/13 06:21:13;;;;;;;11.68;4.97;;;30.80;99.90;;;;;;5036411;28;20463;-73
2022/11/13 06:23:40;;;;;;;12.93;5.57;;;30.90;99.90;;;;;;5035843;28;20013;-67
2022/11/13 06:26:10;;;;;;;7.78;5.60;;;30.90;99.90;;;;;;5035383;28;20526;-71
2022/11/13 06:28:37;;;;;;;9.32;4.55;;;30.90;99.90;;;;;;5044176;28;20032;-70
2022/11/13 06:31:06;;;;;;;6.07;4.00;;;31.00;99.90;;;;;;5042943;28;20021;-70
2022/11/13 06:33:33;;;;;;;8.10;4.05;;;31.00;99.90;;;;;;5042598;28;20017;-72
2022/11/13 06:36:02;;;;;;;8.60;3.75;;;31.10;99.90;;;;;;5043697;28;20033;-70
2022/11/13 06:38:32;;;;;;;11.23;3.95;;;31.10;99.90;;;;;;5041050;28;20060;-68
2022/11/13 06:41:00;;;;;;;8.07;3.78;;;31.10;99.90;;;;;;5041378;28;20428;-67
2022/11/13 06:43:27;;;;;;;12.23;4.65;;;31.10;99.90;;;;;;5041329;28;20018;-67
2022/11/13 06:45:55;;;;;;;6.45;4.05;;;31.00;99.90;;;;;;5040541;28;20355;-69
2022/11/13 06:48:22;;;;;;;8.55;4.40;;;31.10;99.90;;;;;;5041783;28;20373;-70
2022/11/13 06:50:49;;;;;;;8.32;4.68;;;31.10;99.90;;;;;;5043391;28;20680;-68
2022/11/13 06:53:16;;;;;;;14.05;6.38;;;31.10;99.90;;;;;;5044055;28;20025;-70
2022/11/13 06:55:48;;;;;;;13.15;4.93;;;31.20;99.90;;;;;;5044383;28;20020;-69
2022/11/13 06:58:15;;;;;;;11.02;5.00;;;31.20;99.90;;;;;;5044474;28;20052;-68
2022/11/13 07:00:42;;;;;;;10.80;5.10;;;31.30;99.90;;;;;;5041656;28;20041;-69
2022/11/13 07:03:25;;;;;;;10.32;4.22;;;31.40;99.90;;;;;;5042744;28;20020;-67
2022/11/13 07:05:52;;;;;;;9.23;4.97;;;31.50;99.90;;;;;;5042119;28;20472;-67
2022/11/13 07:08:19;;;;;;;9.63;4.80;;;31.50;99.90;;;;;;5045981;28;20096;-68
2022/11/13 07:10:54;;;;;;;11.95;5.20;;;31.50;99.90;;;;;;5045782;28;20483;-67
2022/11/13 07:13:21;;;;;;;7.50;4.70;;;31.60;99.90;;;;;;5045162;28;20053;-68
2022/11/13 07:15:48;;;;;;;7.55;4.75;;;31.70;99.90;;;;;;5048225;28;20540;-68
2022/11/13 07:18:15;;;;;;;8.82;4.40;;;31.70;99.90;;;;;;5046452;28;20032;-70
2022/11/13 07:20:41;;;;;;;8.35;5.13;;;31.70;99.90;;;;;;5047610;28;20024;-68
2022/11/13 07:23:08;;;;;;;11.80;4.75;;;31.60;99.90;;;;;;5046855;28;20040;-68
2022/11/13 07:25:34;;;;;;;6.68;4.88;;;31.50;99.90;;;;;;5045859;28;20028;-68
2022/11/13 07:28:01;;;;;;;10.05;4.65;;;31.50;99.90;;;;;;5036902;28;20095;-71
2022/11/13 07:30:28;;;;;;;9.88;4.50;;;31.40;99.90;;;;;;5037058;28;20377;-68
2022/11/13 07:32:54;;;;;;;8.30;4.18;;;31.40;99.90;;;;;;5036875;28;20462;-68
2022/11/13 07:35:21;;;;;;;7.15;3.75;;;31.40;99.90;;;;;;5043982;28;20040;-69
2022/11/13 07:37:47;;;;;;;7.85;3.85;;;31.30;99.90;;;;;;5045221;28;20017;-70
2022/11/13 07:40:14;;;;;;;22.90;14.95;;;31.20;99.90;;;;;;5046877;28;20028;-69
2022/11/13 07:42:41;;;;;;;64.18;54.25;;;31.30;99.90;;;;;;5045649;28;20023;-67
2022/11/13 07:45:07;;;;;;;8.50;6.05;;;31.40;99.90;;;;;;5045332;28;20465;-68
2022/11/13 07:47:34;;;;;;;12.95;6.75;;;31.40;99.90;;;;;;5047054;28;20484;-68
2022/11/13 07:50:00;;;;;;;8.00;5.50;;;31.50;99.90;;;;;;5045228;28;20489;-68
2022/11/13 07:52:27;;;;;;;7.43;4.05;;;31.50;99.90;;;;;;5045201;28;20108;-70
2022/11/13 07:54:54;;;;;;;9.15;3.80;;;31.60;99.90;;;;;;5046569;28;20013;-68
2022/11/13 07:57:21;;;;;;;9.02;4.18;;;31.50;99.90;;;;;;5045781;28;20497;-68
2022/11/13 07:59:48;;;;;;;6.45;3.80;;;31.50;99.90;;;;;;5050236;28;20056;-68
2022/11/13 08:02:15;;;;;;;9.55;3.40;;;31.50;99.90;;;;;;5045979;28;20385;-71
2022/11/13 08:04:42;;;;;;;9.57;4.03;;;31.50;99.90;;;;;;5047123;28;20049;-67
2022/11/13 08:07:11;;;;;;;7.43;3.55;;;31.50;99.90;;;;;;5040279;28;20037;-70
2022/11/13 08:09:38;;;;;;;9.93;3.67;;;31.40;99.90;;;;;;5040286;28;20025;-72
2022/11/13 08:12:05;;;;;;;7.07;3.97;;;31.40;99.90;;;;;;5040176;28;20470;-70
2022/11/13 08:14:32;;;;;;;8.18;3.65;;;31.50;99.90;;;;;;5039777;28;20025;-69
2022/11/13 08:16:58;;;;;;;7.68;3.83;;;31.50;99.90;;;;;;5043499;28;20098;-70
2022/11/13 08:19:25;;;;;;;9.82;3.42;;;31.50;99.90;;;;;;5037314;28;20109;-74
2022/11/13 08:21:51;;;;;;;13.38;3.33;;;31.50;99.90;;;;;;5017632;28;20057;-71
2022/11/13 08:24:18;;;;;;;9.68;3.20;;;31.50;99.90;;;;;;5041965;28;20017;-71
2022/11/13 08:26:44;;;;;;;16.65;3.30;;;31.20;99.90;;;;;;5045002;28;20056;-67
2022/11/13 08:29:11;;;;;;;8.13;3.30;;;31.20;99.90;;;;;;5046702;28;20029;-71
2022/11/13 08:31:37;;;;;;;10.48;3.95;;;31.30;99.90;;;;;;5045139;28;20017;-70
2022/11/13 08:34:04;;;;;;;9.18;2.70;;;31.40;99.90;;;;;;5042779;28;20014;-73
2022/11/13 08:36:30;;;;;;;5.40;2.60;;;31.40;99.90;;;;;;5052455;28;20037;-70
2022/11/13 08:38:57;;;;;;;9.38;3.13;;;31.40;99.90;;;;;;5055903;28;20024;-70
2022/11/13 08:41:23;;;;;;;14.38;3.50;;;31.40;99.90;;;;;;5053950;28;20381;-70
2022/11/13 08:43:50;;;;;;;5.68;3.15;;;31.50;99.90;;;;;;5051185;28;20026;-69
2022/11/13 08:46:16;;;;;;;10.82;4.22;;;31.50;99.90;;;;;;5049761;28;20025;-70
2022/11/13 08:48:43;;;;;;;9.80;4.50;;;31.60;99.90;;;;;;5055540;28;20110;-71
2022/11/13 08:51:09;;;;;;;8.90;4.60;;;31.60;99.90;;;;;;5053317;28;20032;-68
2022/11/13 08:53:36;;;;;;;10.57;6.20;;;31.50;99.90;;;;;;5055955;28;20488;-74
2022/11/13 08:56:02;;;;;;;4.95;2.63;;;31.60;99.90;;;;;;5054248;28;20021;-72
2022/11/13 08:58:29;;;;;;;6.18;2.25;;;31.70;99.90;;;;;;5054946;28;20039;-74
2022/11/13 09:00:59;;;;;;;2.38;2.15;;;31.70;99.90;;;;;;5055329;28;20025;-73
2022/11/13 09:03:26;;;;;;;4.68;1.90;;;31.60;99.90;;;;;;5055061;28;20063;-72
2022/11/13 09:05:52;;;;;;;4.68;2.20;;;31.70;99.90;;;;;;5054936;28;20024;-73
2022/11/13 09:08:19;;;;;;;8.13;2.50;;;31.70;99.90;;;;;;5055094;28;20032;-74
2022/11/13 09:10:45;;;;;;;5.15;2.58;;;31.70;99.90;;;;;;5055333;28;20025;-73
2022/11/13 09:13:12;;;;;;;4.35;2.20;;;31.70;99.90;;;;;;5054667;28;20028;-74
2022/11/13 09:15:39;;;;;;;4.95;2.10;;;31.70;99.90;;;;;;5054875;28;20082;-75
2022/11/13 09:18:06;;;;;;;7.18;2.10;;;31.70;99.90;;;;;;5054914;28;20021;-73
2022/11/13 09:20:33;;;;;;;5.03;2.58;;;31.60;99.90;;;;;;5043934;28;20013;-74
2022/11/13 09:23:03;;;;;;;5.78;2.30;;;31.60;99.90;;;;;;5035187;28;20388;-75
2022/11/13 09:25:32;;;;;;;5.15;2.03;;;31.50;99.90;;;;;;5037132;28;20035;-75
2022/11/13 09:28:00;;;;;;;3.25;1.85;;;31.50;99.90;;;;;;5036696;28;20039;-76
2022/11/13 09:30:28;;;;;;;5.97;2.25;;;31.50;99.90;;;;;;5054375;28;20021;-72
2022/11/13 09:32:56;;;;;;;2.92;1.80;;;31.50;99.90;;;;;;5035894;28;20029;-70
2022/11/13 09:37:53;;;;;;;7.43;4.15;;;31.50;99.90;;;;;;5054754;28;20021;-73
2022/11/13 09:40:28;;;;;;;7.03;2.92;;;31.60;99.90;;;;;;5052690;28;20021;-72
2022/11/13 09:42:54;;;;;;;5.47;3.20;;;31.60;99.90;;;;;;5053082;28;20100;-72
2022/11/13 09:45:21;;;;;;;12.63;2.67;;;31.50;99.90;;;;;;5037659;28;20416;-72
2022/11/13 09:47:50;;;;;;;22.33;12.82;;;31.40;99.90;;;;;;5054293;28;20029;-70
2022/11/13 09:50:23;;;;;;;8.45;3.00;;;31.40;99.90;;;;;;5053325;28;20386;-71
2022/11/13 09:52:50;;;;;;;18.80;9.68;;;31.40;99.90;;;;;;5053055;28;20032;-71
2022/11/13 09:55:21;;;;;;;10.45;5.88;;;31.30;99.90;;;;;;5054307;28;20067;-71
2022/11/13 09:58:06;;;;;;;8.70;4.07;;;31.30;99.90;;;;;;5054300;28;20025;-70
2022/11/13 10:00:34;;;;;;;9.95;5.13;;;31.30;99.90;;;;;;5054093;28;20057;-71
2022/11/13 10:03:04;;;;;;;8.35;3.88;;;31.30;99.90;;;;;;5054147;28;20025;-70
2022/11/13 10:05:48;;;;;;;9.23;5.18;;;31.20;99.90;;;;;;5054111;28;20025;-71
2022/11/13 10:08:20;;;;;;;11.27;4.53;;;31.10;99.90;;;;;;5052806;28;20098;-72
2022/11/13 10:11:05;;;;;;;9.05;4.93;;;31.00;99.90;;;;;;5054011;28;20025;-72
2022/11/13 10:13:37;;;;;;;9.40;5.45;;;31.00;99.90;;;;;;5054135;28;20021;-68
2022/11/13 10:16:24;;;;;;;6.15;4.05;;;31.00;99.90;;;;;;5054002;28;20020;-67
2022/11/13 10:18:53;;;;;;;8.18;4.05;;;31.00;99.90;;;;;;5052269;28;20523;-67
2022/11/13 10:21:31;;;;;;;6.07;2.83;;;30.80;99.90;;;;;;5053822;28;20025;-67
2022/11/13 10:24:03;;;;;;;9.43;3.15;;;30.70;99.90;;;;;;5053753;28;20040;-67
2022/11/13 10:26:29;;;;;;;4.90;2.42;;;30.80;99.90;;;;;;5053650;28;20029;-67
2022/11/13 10:29:05;;;;;;;6.78;3.35;;;30.70;99.90;;;;;;5053595;28;20516;-67
2022/11/13 10:31:42;;;;;;;9.80;4.38;;;30.70;99.90;;;;;;5053634;28;20040;-66
2022/11/13 10:34:10;;;;;;;13.00;3.05;;;30.70;99.90;;;;;;5053522;28;20044;-67
2022/11/13 10:36:42;;;;;;;19.30;13.50;;;30.60;99.90;;;;;;5053455;28;20048;-67
2022/11/13 10:39:09;;;;;;;35.22;21.73;;;30.40;99.90;;;;;;5053570;28;20044;-66
2022/11/13 10:41:40;;;;;;;25.85;14.38;;;30.30;99.90;;;;;;5053318;28;20029;-67
2022/11/13 10:44:19;;;;;;;25.42;12.35;;;30.30;99.90;;;;;;5053120;28;20029;-67
2022/11/13 10:46:46;;;;;;;35.22;16.52;;;30.20;99.90;;;;;;5053220;28;20028;-67
2022/11/13 10:49:19;;;;;;;30.52;8.52;;;30.20;99.90;;;;;;5053503;28;20385;-67
2022/11/13 10:51:55;;;;;;;18.98;6.18;;;30.10;99.90;;;;;;5053376;28;20481;-66
2022/11/13 10:54:26;;;;;;;14.70;4.85;;;30.10;99.90;;;;;;5053154;28;20055;-67
2022/11/13 10:56:59;;;;;;;15.57;5.78;;;30.10;99.90;;;;;;5053343;28;20082;-66
2022/11/13 10:59:37;;;;;;;19.30;9.32;;;30.00;99.90;;;;;;5053213;28;20017;-66
2022/11/13 11:02:18;;;;;;;25.92;14.30;;;30.00;99.90;;;;;;5053465;28;20060;-67
2022/11/13 11:04:44;;;;;;;18.77;10.07;;;30.10;99.90;;;;;;5053031;28;20477;-67
2022/11/13 11:07:15;;;;;;;17.27;9.13;;;30.00;99.90;;;;;;5053191;28;20029;-67
2022/11/13 11:09:43;;;;;;;28.75;13.27;;;30.10;99.90;;;;;;5053126;28;20028;-66
2022/11/13 11:12:15;;;;;;;30.30;14.02;;;30.10;99.90;;;;;;5052928;28;20052;-66
2022/11/13 11:14:49;;;;;;;25.65;12.93;;;30.10;99.90;;;;;;5053211;28;20048;-66
2022/11/13 11:17:17;;;;;;;28.67;12.35;;;30.10;99.90;;;;;;5052953;28;20028;-66
2022/11/13 11:19:52;;;;;;;33.10;10.80;;;30.10;99.90;;;;;;5053117;28;20049;-67
2022/11/13 11:22:23;;;;;;;19.83;8.18;;;30.10;99.90;;;;;;5052986;28;20025;-66
2022/11/13 11:25:04;;;;;;;14.25;7.18;;;30.00;99.90;;;;;;5052808;28;20021;-66
2022/11/13 11:27:38;;;;;;;20.98;6.93;;;29.90;99.90;;;;;;5053085;28;20469;-67
2022/11/13 11:30:09;;;;;;;21.00;7.80;;;29.90;99.90;;;;;;5052918;28;20025;-66
2022/11/13 11:32:44;;;;;;;17.92;7.40;;;29.90;99.90;;;;;;5052764;28;20370;-67
2022/11/13 11:35:32;;;;;;;18.63;7.82;;;29.90;99.90;;;;;;5052683;28;20025;-66
2022/11/13 11:38:10;;;;;;;38.28;21.50;;;30.00;99.90;;;;;;5052127;28;20069;-67
2022/11/13 11:40:42;;;;;;;81.82;50.63;;;30.00;99.90;;;;;;5052686;28;20453;-67
2022/11/13 11:43:11;;;;;;;27.33;14.48;;;30.10;99.90;;;;;;5052964;28;20033;-67
2022/11/13 11:45:48;;;;;;;32.03;14.98;;;30.10;99.90;;;;;;5052742;28;20485;-65
2022/11/13 11:48:25;;;;;;;35.42;13.73;;;30.10;99.90;;;;;;5052632;28;20095;-67
2022/11/13 11:50:58;;;;;;;19.95;8.38;;;30.00;99.90;;;;;;5053020;28;20454;-66
2022/11/13 11:53:30;;;;;;;19.05;10.88;;;30.00;99.90;;;;;;5052716;28;20036;-67
2022/11/13 11:56:01;;;;;;;21.80;10.35;;;30.00;99.90;;;;;;5055921;28;20029;-67
2022/11/13 11:58:51;;;;;;;33.70;16.60;;;29.90;99.90;;;;;;5056372;28;20024;-66
2022/11/13 12:01:30;;;;;;;42.40;19.63;;;30.00;99.90;;;;;;5040710;28;20104;-67
2022/11/13 12:04:01;;;;;;;46.97;22.42;;;29.90;99.90;;;;;;5040863;28;20080;-65
2022/11/13 12:06:32;;;;;;;56.35;28.17;;;29.90;99.90;;;;;;5053367;28;20017;-65
2022/11/13 12:09:07;;;;;;;63.53;25.13;;;29.90;99.90;;;;;;5052001;28;20032;-64
2022/11/13 12:11:38;;;;;;;53.58;23.33;;;29.90;99.90;;;;;;5054898;28;20090;-64
2022/11/13 12:14:08;;;;;;;63.60;24.63;;;29.80;99.90;;;;;;5054903;28;20021;-62
2022/11/13 12:16:43;;;;;;;52.90;26.35;;;29.80;99.90;;;;;;5055037;28;20028;-66
2022/11/13 12:19:16;;;;;;;53.75;25.75;;;29.70;99.90;;;;;;5054997;28;20393;-67
2022/11/13 12:22:05;;;;;;;50.17;22.25;;;29.60;99.90;;;;;;5047452;28;20025;-64
2022/11/13 12:24:35;;;;;;;45.65;22.98;;;29.60;99.90;;;;;;5039949;28;20043;-65
2022/11/13 12:27:05;;;;;;;56.58;22.00;;;29.50;99.90;;;;;;5050686;28;20389;-65
2022/11/13 12:29:36;;;;;;;46.78;20.48;;;29.50;99.90;;;;;;5049914;28;20021;-64
2022/11/13 12:32:17;;;;;;;56.13;21.38;;;29.50;99.90;;;;;;5049672;28;20021;-64
2022/11/13 12:34:45;;;;;;;61.90;21.92;;;29.50;99.90;;;;;;5045765;28;20036;-64
2022/11/13 12:37:17;;;;;;;64.75;21.55;;;29.50;99.90;;;;;;5044383;28;20047;-64
2022/11/13 12:39:47;;;;;;;76.80;22.08;;;29.40;99.90;;;;;;5045515;28;20108;-65
2022/11/13 12:42:17;;;;;;;61.03;20.15;;;29.40;99.90;;;;;;5046669;28;20032;-65
2022/11/13 12:45:05;;;;;;;74.78;22.50;;;29.40;99.90;;;;;;5039793;28;20083;-65
2022/11/13 12:47:34;;;;;;;60.90;21.88;;;29.40;99.90;;;;;;5037346;28;20344;-65
2022/11/13 12:50:19;;;;;;;69.10;21.63;;;29.40;99.90;;;;;;5040713;28;20038;-63
2022/11/13 12:53:00;;;;;;;65.68;21.88;;;29.40;99.90;;;;;;5041044;28;20033;-64